Eastlake, Michigan
Current Conditions -  °F | °C
As of 4:15 PM on Tuesday 21 Oct 2014 (Local Time) from KMBL Reporting Station
Clear Clear  
Wind Chill: 50°   Ceiling: Unl
Heat Index: 50°   Visibility: 10mi
Dew Point: 36°   Wind: 15mph
Humidity: 58%   Direction: 330°NNW
Pressure: 30.18"   Gusts: NA
Location:  44.24°N, 86.3°W
Report Text: KMBL 212015Z AUTO 33013KT 10SM CLR 10/02 A3018 RMK AO1
Loading
Personal Weather Stations






























Interactive Weather Map
Tropical Storm Tracking
New forecast layout! Learn more

10-Day Weather Forecast

Advertisements
Track Severe Weather on mobile